createdAt,value
2023-04-30T00:00:22.365Z,25.70
2023-04-30T00:02:52.700Z,25.70
2023-04-30T00:05:22.922Z,25.70
2023-04-30T00:07:53.006Z,25.60
2023-04-30T00:10:23.454Z,25.60
2023-04-30T00:12:54.001Z,25.60
2023-04-30T00:15:24.699Z,25.60
2023-04-30T00:17:54.857Z,25.60
2023-04-30T00:20:24.959Z,25.70
2023-04-30T00:22:56.413Z,25.60
2023-04-30T00:25:26.867Z,25.60
2023-04-30T00:27:59.406Z,25.70
2023-04-30T00:30:29.830Z,25.60
2023-04-30T00:33:00.615Z,25.60
2023-04-30T00:35:31.755Z,25.50
2023-04-30T00:38:02.084Z,25.70
2023-04-30T00:40:37.492Z,25.70
2023-04-30T00:43:08.099Z,25.50
2023-04-30T00:45:37.977Z,25.60
2023-04-30T00:48:09.603Z,25.60
2023-04-30T00:50:40.304Z,25.60
2023-04-30T00:53:10.446Z,25.60
2023-04-30T00:55:44.864Z,25.50
2023-04-30T00:58:16.153Z,25.70
2023-04-30T01:00:56.033Z,25.90
2023-04-30T01:03:26.574Z,26.00
2023-04-30T01:05:56.673Z,26.10
2023-04-30T01:08:31.579Z,26.20
2023-04-30T01:11:42.116Z,26.00
2023-04-30T01:14:39.430Z,26.10
2023-04-30T01:17:34.248Z,26.00
2023-04-30T01:20:08.516Z,26.00
2023-04-30T01:22:53.970Z,26.00
2023-04-30T01:25:47.218Z,26.20
2023-04-30T01:28:18.541Z,26.20
2023-04-30T01:30:50.240Z,26.20
2023-04-30T01:33:20.305Z,26.20
2023-04-30T01:36:15.813Z,26.30
2023-04-30T01:39:25.379Z,26.40
2023-04-30T01:42:22.476Z,26.50
2023-04-30T01:45:22.644Z,26.60
2023-04-30T01:48:19.714Z,26.40
2023-04-30T01:51:09.441Z,26.40
2023-04-30T01:53:44.410Z,26.50
2023-04-30T01:56:39.960Z,26.40
2023-04-30T01:59:11.722Z,26.50
2023-04-30T02:01:42.452Z,26.50
2023-04-30T02:04:12.457Z,26.60
2023-04-30T02:06:46.205Z,26.50
2023-04-30T02:09:21.511Z,26.50
2023-04-30T02:11:51.780Z,26.50
2023-04-30T02:14:21.921Z,26.50
2023-04-30T02:16:57.478Z,26.40
2023-04-30T02:19:27.770Z,26.60
2023-04-30T02:21:57.879Z,26.60
2023-04-30T02:24:28.377Z,26.60
2023-04-30T02:26:58.633Z,26.50
2023-04-30T02:29:31.700Z,26.60
2023-04-30T02:32:02.727Z,26.50
2023-04-30T02:34:34.024Z,26.40
2023-04-30T02:37:08.340Z,26.30
2023-04-30T02:39:38.877Z,26.30
2023-04-30T02:42:09.410Z,26.40
2023-04-30T02:44:39.904Z,26.50
2023-04-30T02:47:11.731Z,26.50
2023-04-30T02:49:43.174Z,26.40
2023-04-30T02:52:15.437Z,26.50
2023-04-30T02:54:47.420Z,26.50
2023-04-30T02:57:19.216Z,26.60
2023-04-30T02:59:49.782Z,26.40
2023-04-30T03:02:22.960Z,26.30
2023-04-30T03:04:54.182Z,26.40
2023-04-30T03:07:24.594Z,26.50
2023-04-30T03:09:57.698Z,26.60
2023-04-30T03:12:30.820Z,26.70
2023-04-30T03:15:01.155Z,26.70
2023-04-30T03:17:31.348Z,26.80
2023-04-30T03:20:01.854Z,26.80
2023-04-30T03:22:33.341Z,26.70
2023-04-30T03:25:05.973Z,26.80
2023-04-30T03:27:37.235Z,26.80
2023-04-30T03:30:10.629Z,26.90
2023-04-30T03:32:41.147Z,26.90
2023-04-30T03:35:12.949Z,26.90
2023-04-30T03:37:44.226Z,26.90
2023-04-30T03:40:14.983Z,27.00
2023-04-30T03:42:48.148Z,27.00
2023-04-30T03:45:21.105Z,27.00
2023-04-30T03:47:52.738Z,27.00
2023-04-30T03:50:26.235Z,26.90
2023-04-30T03:52:58.216Z,26.90
2023-04-30T03:55:33.341Z,27.00
2023-04-30T03:58:03.386Z,27.00
2023-04-30T04:00:33.501Z,27.10
2023-04-30T04:03:04.148Z,27.20
2023-04-30T04:05:37.385Z,27.30
2023-04-30T04:08:09.419Z,27.40
2023-04-30T04:10:40.115Z,27.40
2023-04-30T04:13:13.035Z,27.40
2023-04-30T04:15:43.455Z,27.40
2023-04-30T04:18:13.487Z,27.40
2023-04-30T04:20:44.267Z,27.60
2023-04-30T04:23:17.191Z,27.70
2023-04-30T04:25:51.096Z,27.90
2023-04-30T04:28:21.062Z,27.90
2023-04-30T04:30:51.192Z,27.90
2023-04-30T04:33:22.670Z,28.00
2023-04-30T04:35:52.772Z,28.00
2023-04-30T04:38:23.866Z,28.10
2023-04-30T04:40:55.131Z,27.90
2023-04-30T04:43:26.001Z,28.00
2023-04-30T04:45:56.209Z,28.00
2023-04-30T04:48:25.925Z,28.10
2023-04-30T04:50:56.645Z,28.10
2023-04-30T04:53:27.984Z,28.00
2023-04-30T04:55:58.321Z,28.10
2023-04-30T04:58:28.389Z,28.20
2023-04-30T05:00:59.150Z,28.30
2023-04-30T05:03:30.037Z,28.30
2023-04-30T05:06:00.680Z,28.30
2023-04-30T05:08:30.376Z,28.40
2023-04-30T05:11:00.425Z,28.50
2023-04-30T05:13:30.243Z,28.50
2023-04-30T05:16:00.417Z,28.70
2023-04-30T05:18:30.235Z,29.10
2023-04-30T05:21:01.112Z,29.70
2023-04-30T05:23:30.779Z,30.00
2023-04-30T05:26:00.869Z,30.20
2023-04-30T05:28:30.655Z,30.00
2023-04-30T05:31:00.671Z,30.10
2023-04-30T05:33:30.321Z,30.30
2023-04-30T05:36:00.151Z,30.20
2023-04-30T05:38:29.833Z,30.10
2023-04-30T05:40:59.823Z,30.30
2023-04-30T05:43:29.624Z,30.40
2023-04-30T05:45:59.559Z,30.30
2023-04-30T05:48:29.300Z,30.70
2023-04-30T05:50:59.174Z,31.00
2023-04-30T05:53:29.575Z,31.50
2023-04-30T05:55:59.624Z,31.50
2023-04-30T05:58:29.290Z,31.50
2023-04-30T06:00:59.209Z,31.50
2023-04-30T06:03:28.899Z,31.40
2023-04-30T06:05:58.904Z,31.30
2023-04-30T06:08:28.825Z,31.30
2023-04-30T06:10:59.455Z,31.30
2023-04-30T06:13:29.493Z,31.20
2023-04-30T06:15:59.364Z,31.20
2023-04-30T06:18:29.439Z,31.00
2023-04-30T06:20:59.127Z,31.00
2023-04-30T06:23:29.111Z,31.00
2023-04-30T06:25:58.952Z,30.90
2023-04-30T06:28:28.881Z,30.80
2023-04-30T06:30:58.882Z,30.80
2023-04-30T06:33:28.830Z,31.00
2023-04-30T06:36:00.634Z,31.10
2023-04-30T06:38:30.917Z,31.20
2023-04-30T06:41:00.664Z,31.30
2023-04-30T06:43:30.572Z,31.30
2023-04-30T06:46:00.332Z,31.60
2023-04-30T06:48:30.391Z,31.90
2023-04-30T06:51:00.406Z,32.00
2023-04-30T06:53:30.936Z,32.00
2023-04-30T06:56:00.706Z,31.80
2023-04-30T06:58:30.526Z,32.00
2023-04-30T07:01:00.246Z,32.10
2023-04-30T07:03:30.904Z,32.20
2023-04-30T07:06:00.922Z,32.10
2023-04-30T07:08:30.914Z,32.50
2023-04-30T07:11:01.466Z,32.50
2023-04-30T07:13:31.695Z,32.40
2023-04-30T07:16:02.015Z,32.40
2023-04-30T07:18:33.253Z,32.20
2023-04-30T07:21:03.074Z,32.20
2023-04-30T07:23:33.071Z,32.50
2023-04-30T07:26:03.428Z,32.80
2023-04-30T07:28:34.186Z,32.70
2023-04-30T07:31:03.928Z,33.00
2023-04-30T07:33:35.233Z,33.00
2023-04-30T07:36:05.617Z,33.00
2023-04-30T07:38:36.024Z,33.10
2023-04-30T07:41:09.696Z,32.90
2023-04-30T07:43:39.573Z,32.80
2023-04-30T07:46:09.342Z,32.70
2023-04-30T07:48:39.969Z,32.80
2023-04-30T07:51:09.953Z,33.10
2023-04-30T07:53:40.894Z,33.50
2023-04-30T07:56:10.636Z,33.20
2023-04-30T07:58:40.820Z,33.10
2023-04-30T08:01:10.806Z,32.90
2023-04-30T08:03:41.865Z,33.10
2023-04-30T08:06:13.611Z,32.80
2023-04-30T08:08:44.042Z,32.90
2023-04-30T08:11:14.684Z,33.00
2023-04-30T08:13:45.161Z,33.10
2023-04-30T08:16:15.051Z,33.10
2023-04-30T08:18:47.794Z,33.30
2023-04-30T08:21:19.638Z,33.40
2023-04-30T08:23:49.841Z,33.70
2023-04-30T08:26:19.490Z,33.80
2023-04-30T08:28:49.497Z,33.60
2023-04-30T08:31:19.940Z,33.80
2023-04-30T08:33:49.983Z,33.50
2023-04-30T08:36:19.739Z,33.60
2023-04-30T08:38:49.587Z,33.70
2023-04-30T08:41:19.368Z,34.10
2023-04-30T08:43:53.603Z,34.20
2023-04-30T08:46:25.613Z,34.20
2023-04-30T08:48:55.751Z,34.10
2023-04-30T08:51:26.019Z,34.00
2023-04-30T08:53:59.062Z,33.80
2023-04-30T08:56:32.742Z,33.50
2023-04-30T08:59:02.925Z,33.40
2023-04-30T09:01:32.877Z,33.50
2023-04-30T09:04:05.792Z,33.40
2023-04-30T09:06:36.121Z,33.40
2023-04-30T09:09:16.536Z,33.50
2023-04-30T09:11:47.211Z,33.40
2023-04-30T09:14:28.600Z,33.50
2023-04-30T09:16:59.224Z,33.90
2023-04-30T09:19:31.194Z,33.90
2023-04-30T09:22:01.348Z,33.80
2023-04-30T09:24:49.284Z,33.80
2023-04-30T09:27:25.114Z,33.80
2023-04-30T09:29:55.333Z,33.50
2023-04-30T09:32:25.828Z,33.50
2023-04-30T09:34:57.057Z,33.20
2023-04-30T09:37:38.798Z,33.20
2023-04-30T09:40:09.759Z,33.30
2023-04-30T09:42:40.027Z,33.40
2023-04-30T09:45:12.800Z,33.40
2023-04-30T09:47:43.041Z,33.30
2023-04-30T09:50:16.132Z,33.20
2023-04-30T09:52:55.196Z,33.20
2023-04-30T09:55:25.315Z,33.20
2023-04-30T09:57:55.079Z,33.30
2023-04-30T10:00:25.797Z,33.30
2023-04-30T10:02:56.148Z,33.40
2023-04-30T10:05:26.468Z,33.50
2023-04-30T10:10:46.797Z,33.20
2023-04-30T10:13:21.576Z,33.00
2023-04-30T10:15:55.908Z,32.80
2023-04-30T10:18:36.026Z,32.80
2023-04-30T10:21:14.010Z,32.80
2023-04-30T10:23:45.101Z,32.60
2023-04-30T10:26:15.952Z,32.40
2023-04-30T10:28:46.593Z,32.10
2023-04-30T10:31:16.927Z,31.80
2023-04-30T10:34:15.036Z,31.60
2023-04-30T10:36:51.873Z,31.50
2023-04-30T10:39:24.641Z,31.30
2023-04-30T10:42:01.954Z,31.40
2023-04-30T10:44:36.680Z,31.30
2023-04-30T10:47:08.425Z,31.30
2023-04-30T10:49:41.464Z,31.30
2023-04-30T10:52:13.493Z,31.40
2023-04-30T10:54:53.350Z,31.40
2023-04-30T10:57:24.169Z,31.40
2023-04-30T11:00:16.597Z,31.40
2023-04-30T11:02:51.503Z,31.30
2023-04-30T11:05:21.842Z,31.30
2023-04-30T11:07:59.870Z,31.30
2023-04-30T11:10:37.320Z,31.30
2023-04-30T11:13:09.126Z,31.20
2023-04-30T11:15:43.845Z,31.10
2023-04-30T11:18:16.261Z,31.10
2023-04-30T11:20:53.393Z,31.10
2023-04-30T11:23:39.374Z,31.00
2023-04-30T11:26:12.848Z,31.10
2023-04-30T11:28:56.941Z,31.00
2023-04-30T11:31:36.628Z,31.10
2023-04-30T11:34:08.726Z,31.00
2023-04-30T11:36:39.259Z,31.00
2023-04-30T11:39:10.904Z,31.00
2023-04-30T11:41:45.430Z,31.00
2023-04-30T11:44:34.881Z,31.00
2023-04-30T11:47:05.004Z,30.90
2023-04-30T11:49:35.005Z,30.90
2023-04-30T11:52:05.147Z,30.80
2023-04-30T11:54:36.649Z,30.80
2023-04-30T11:57:07.923Z,30.80
2023-04-30T11:59:43.949Z,31.00
2023-04-30T12:02:18.397Z,31.20
2023-04-30T12:04:49.943Z,31.10
2023-04-30T12:07:22.095Z,31.00
2023-04-30T12:09:57.809Z,30.90
2023-04-30T12:12:34.325Z,30.80
2023-04-30T12:15:13.755Z,30.80
2023-04-30T12:17:44.183Z,30.70
2023-04-30T12:20:16.668Z,30.70
2023-04-30T12:22:47.291Z,30.70
2023-04-30T12:25:19.451Z,30.70
2023-04-30T12:27:53.408Z,30.70
2023-04-30T12:30:26.462Z,30.60
2023-04-30T12:33:00.368Z,30.60
2023-04-30T12:35:35.542Z,30.50
2023-04-30T12:38:11.054Z,30.50
2023-04-30T12:40:42.332Z,30.40
2023-04-30T12:43:12.509Z,30.40
2023-04-30T12:45:54.036Z,30.30
2023-04-30T12:48:26.918Z,30.20
2023-04-30T12:51:04.453Z,30.20
2023-04-30T12:53:34.708Z,30.20
2023-04-30T12:56:19.460Z,30.10
2023-04-30T12:58:52.513Z,30.10
2023-04-30T13:01:25.369Z,30.20
2023-04-30T13:03:58.650Z,30.30
2023-04-30T13:06:30.602Z,30.30
2023-04-30T13:09:00.840Z,30.40
2023-04-30T13:11:30.551Z,30.40
2023-04-30T13:14:00.462Z,30.30
2023-04-30T13:16:30.461Z,30.30
2023-04-30T13:19:00.614Z,30.40
2023-04-30T13:21:30.394Z,30.40
2023-04-30T13:24:00.523Z,30.40
2023-04-30T13:26:31.183Z,30.30
2023-04-30T13:29:01.263Z,30.20
2023-04-30T13:31:30.996Z,30.30
2023-04-30T13:34:01.011Z,30.30
2023-04-30T13:36:31.125Z,30.40
2023-04-30T13:39:01.841Z,30.40
2023-04-30T13:41:32.677Z,30.40
2023-04-30T13:44:05.750Z,30.40
2023-04-30T13:46:35.855Z,30.40
2023-04-30T13:49:06.209Z,30.40
2023-04-30T13:51:36.089Z,30.30
2023-04-30T13:54:05.782Z,30.30
2023-04-30T13:56:35.805Z,30.20
2023-04-30T13:59:05.666Z,30.20
2023-04-30T14:01:36.286Z,30.20
2023-04-30T14:04:06.311Z,30.20
2023-04-30T14:06:36.545Z,30.30
2023-04-30T14:09:06.344Z,30.10
2023-04-30T14:11:36.319Z,30.10
2023-04-30T14:14:06.100Z,30.00
2023-04-30T14:16:36.179Z,29.90
2023-04-30T14:19:06.416Z,29.80
2023-04-30T14:21:36.533Z,29.90
2023-04-30T14:24:07.107Z,30.00
2023-04-30T14:26:39.802Z,30.00
2023-04-30T14:29:09.933Z,29.90
2023-04-30T14:31:39.772Z,29.70
2023-04-30T14:34:09.935Z,29.60
2023-04-30T14:36:40.137Z,29.60
2023-04-30T14:39:10.390Z,29.60
2023-04-30T14:41:41.193Z,29.50
2023-04-30T14:44:11.850Z,29.50
2023-04-30T14:46:42.342Z,29.50
2023-04-30T14:49:12.850Z,29.40
2023-04-30T14:51:42.754Z,29.30
2023-04-30T14:54:12.561Z,29.20
2023-04-30T14:56:42.935Z,29.10
2023-04-30T14:59:14.792Z,29.00
2023-04-30T15:01:46.790Z,29.00
2023-04-30T15:04:16.722Z,29.00
2023-04-30T15:06:46.390Z,29.00
2023-04-30T15:09:17.189Z,29.00
2023-04-30T15:11:46.938Z,29.00
2023-04-30T15:14:18.739Z,29.00
2023-04-30T15:16:48.691Z,28.90
2023-04-30T15:19:18.416Z,28.90
2023-04-30T15:21:49.299Z,28.80
2023-04-30T15:24:19.551Z,28.80
2023-04-30T15:26:49.791Z,28.80
2023-04-30T15:29:19.426Z,28.80
2023-04-30T15:31:49.543Z,28.70
2023-04-30T15:34:19.462Z,28.60
2023-04-30T15:36:52.046Z,28.50
2023-04-30T15:39:22.542Z,28.50
2023-04-30T15:41:53.012Z,28.60
2023-04-30T15:44:23.778Z,28.50
2023-04-30T15:46:53.915Z,28.50
2023-04-30T15:49:24.808Z,28.50
2023-04-30T15:51:54.922Z,28.50
2023-04-30T15:54:25.023Z,28.50
2023-04-30T15:56:55.261Z,28.20
2023-04-30T15:59:25.544Z,28.10
2023-04-30T16:01:56.299Z,28.10
2023-04-30T16:04:26.157Z,28.10
2023-04-30T16:06:58.653Z,28.10
2023-04-30T16:09:28.900Z,28.10
2023-04-30T16:12:00.404Z,28.00
2023-04-30T16:14:30.452Z,28.10
2023-04-30T16:17:00.218Z,28.20
2023-04-30T16:19:30.150Z,28.30
2023-04-30T16:21:59.974Z,28.20
2023-04-30T16:24:30.216Z,28.20
2023-04-30T16:26:59.895Z,28.20
2023-04-30T16:29:29.760Z,28.20
2023-04-30T16:32:00.199Z,28.10
2023-04-30T16:34:30.188Z,28.00
2023-04-30T16:36:59.893Z,27.80
2023-04-30T16:39:29.924Z,27.90
2023-04-30T16:41:59.695Z,27.80
2023-04-30T16:44:29.505Z,27.70
2023-04-30T16:47:01.343Z,27.50
2023-04-30T16:49:31.857Z,27.50
2023-04-30T16:52:01.539Z,27.60
2023-04-30T16:54:31.454Z,27.60
2023-04-30T16:57:01.067Z,27.50
2023-04-30T16:59:31.119Z,27.60
2023-04-30T17:02:03.447Z,27.60
2023-04-30T17:04:34.184Z,27.60
2023-04-30T17:07:04.599Z,27.50
2023-04-30T17:09:34.616Z,27.50
2023-04-30T17:12:05.176Z,27.70
2023-04-30T17:14:35.282Z,27.70
2023-04-30T17:17:04.915Z,27.70
2023-04-30T17:19:35.385Z,27.60
2023-04-30T17:22:05.522Z,27.50
2023-04-30T17:24:35.474Z,27.50
2023-04-30T17:27:07.047Z,27.70
2023-04-30T17:29:37.040Z,27.70
2023-04-30T17:32:06.957Z,27.50
2023-04-30T17:34:37.288Z,27.70
2023-04-30T17:37:07.404Z,27.70
2023-04-30T17:39:37.725Z,27.80
2023-04-30T17:42:07.837Z,27.80
2023-04-30T17:44:37.818Z,27.80
2023-04-30T17:47:08.486Z,27.70
2023-04-30T17:49:38.369Z,27.70
2023-04-30T17:52:08.201Z,27.70
2023-04-30T17:54:38.711Z,27.70
2023-04-30T17:57:08.800Z,27.60
2023-04-30T17:59:41.421Z,27.40
2023-04-30T18:02:11.970Z,27.40
2023-04-30T18:04:41.800Z,27.20
2023-04-30T18:07:11.794Z,27.00
2023-04-30T18:09:41.408Z,27.00
2023-04-30T18:12:11.296Z,27.00
2023-04-30T18:14:41.754Z,27.20
2023-04-30T18:17:11.909Z,27.20
2023-04-30T18:19:45.882Z,27.20
2023-04-30T18:22:16.584Z,27.10
2023-04-30T18:24:46.756Z,27.10
2023-04-30T18:27:16.534Z,27.30
2023-04-30T18:29:46.789Z,27.30
2023-04-30T18:32:17.485Z,27.20
2023-04-30T18:34:47.804Z,27.10
2023-04-30T18:37:19.275Z,27.10
2023-04-30T18:39:49.441Z,27.00
2023-04-30T18:42:19.289Z,27.20
2023-04-30T18:44:49.212Z,27.30
2023-04-30T18:47:18.897Z,27.30
2023-04-30T18:49:48.850Z,27.10
2023-04-30T18:52:18.527Z,27.00
2023-04-30T18:54:48.404Z,26.80
2023-04-30T18:57:19.883Z,26.80
2023-04-30T18:59:50.972Z,26.90
2023-04-30T19:02:23.348Z,26.90
2023-04-30T19:04:54.765Z,26.90
2023-04-30T19:07:24.778Z,26.80
2023-04-30T19:09:55.699Z,26.90
2023-04-30T19:12:26.065Z,26.80
2023-04-30T19:14:55.765Z,26.90
2023-04-30T19:17:25.747Z,26.90
2023-04-30T19:19:56.795Z,26.90
2023-04-30T19:22:27.202Z,26.90
2023-04-30T19:24:57.164Z,26.80
2023-04-30T19:27:27.087Z,26.80
2023-04-30T19:29:59.069Z,26.80
2023-04-30T19:32:29.415Z,26.80
2023-04-30T19:35:00.497Z,26.70
2023-04-30T19:37:30.627Z,26.70
2023-04-30T19:40:00.469Z,26.70
2023-04-30T19:42:31.726Z,26.60
2023-04-30T19:45:01.946Z,26.70
2023-04-30T19:47:31.798Z,26.70
2023-04-30T19:50:01.933Z,26.70
2023-04-30T19:52:31.762Z,26.70
2023-04-30T19:55:01.890Z,26.70
2023-04-30T19:57:36.301Z,26.70
2023-04-30T20:00:07.782Z,26.70
2023-04-30T20:02:38.477Z,26.80
2023-04-30T20:05:11.607Z,26.80
2023-04-30T20:07:41.757Z,26.70
2023-04-30T20:10:12.251Z,26.70
2023-04-30T20:12:42.911Z,26.80
2023-04-30T20:15:13.054Z,26.90
2023-04-30T20:17:43.175Z,26.90
2023-04-30T20:20:14.418Z,26.60
2023-04-30T20:22:44.597Z,26.60
2023-04-30T20:25:15.222Z,26.60
2023-04-30T20:27:45.336Z,26.60
2023-04-30T20:30:15.998Z,26.60
2023-04-30T20:32:46.286Z,26.80
2023-04-30T20:35:16.032Z,26.80
2023-04-30T20:37:45.944Z,26.80
2023-04-30T20:40:16.135Z,26.80
2023-04-30T20:42:46.325Z,26.80
2023-04-30T20:45:17.448Z,26.80
2023-04-30T20:47:48.174Z,26.80
2023-04-30T20:50:19.202Z,26.60
2023-04-30T20:52:49.297Z,26.60
2023-04-30T20:55:19.110Z,26.70
2023-04-30T20:57:49.111Z,26.60
2023-04-30T21:00:19.112Z,26.70
2023-04-30T21:02:49.199Z,26.70
2023-04-30T21:05:19.018Z,26.60
2023-04-30T21:07:48.934Z,26.70
2023-04-30T21:10:18.603Z,26.70
2023-04-30T21:12:48.634Z,26.70
2023-04-30T21:15:18.445Z,26.60
2023-04-30T21:17:49.786Z,26.50
2023-04-30T21:20:19.956Z,26.20
2023-04-30T21:22:50.862Z,26.30
2023-04-30T21:25:20.866Z,26.30
2023-04-30T21:27:51.141Z,26.30
2023-04-30T21:30:25.575Z,26.30
2023-04-30T21:32:59.549Z,26.40
2023-04-30T21:35:34.449Z,26.50
2023-04-30T21:38:04.386Z,26.60
2023-04-30T21:40:35.248Z,26.60
2023-04-30T21:43:05.611Z,26.60
2023-04-30T21:45:35.827Z,26.60
2023-04-30T21:48:07.032Z,26.60
2023-04-30T21:50:37.731Z,26.60
2023-04-30T21:53:07.806Z,26.60
2023-04-30T21:55:37.726Z,26.60
2023-04-30T21:58:07.376Z,26.50
2023-04-30T22:00:37.792Z,26.50
2023-04-30T22:03:07.602Z,26.50
2023-04-30T22:05:37.797Z,26.50
2023-04-30T22:08:07.649Z,26.40
2023-04-30T22:10:37.817Z,26.40
2023-04-30T22:13:07.560Z,26.40
2023-04-30T22:15:47.874Z,26.40
2023-04-30T22:18:18.758Z,26.40
2023-04-30T22:20:50.755Z,26.40
2023-04-30T22:23:22.794Z,26.30
2023-04-30T22:25:53.071Z,26.20
2023-04-30T22:28:24.025Z,26.20
2023-04-30T22:31:01.164Z,26.20
2023-04-30T22:33:31.174Z,26.20
2023-04-30T22:36:01.552Z,26.20
2023-04-30T22:38:32.118Z,26.20
2023-04-30T22:41:02.697Z,26.20
2023-04-30T22:43:33.052Z,26.10
2023-04-30T22:46:03.679Z,26.20
2023-04-30T22:48:33.623Z,26.10
2023-04-30T22:51:03.414Z,25.80
2023-04-30T22:53:33.510Z,26.00
2023-04-30T22:56:03.259Z,25.90
2023-04-30T22:58:33.145Z,26.00
2023-04-30T23:01:02.948Z,26.10
2023-04-30T23:03:33.714Z,26.10
2023-04-30T23:06:03.561Z,26.10
2023-04-30T23:08:34.125Z,26.10
2023-04-30T23:11:06.312Z,26.20
2023-04-30T23:13:37.220Z,26.20
2023-04-30T23:16:10.289Z,26.20
2023-04-30T23:18:40.607Z,26.30
2023-04-30T23:21:10.677Z,26.20
2023-04-30T23:23:41.187Z,26.30
2023-04-30T23:26:11.144Z,26.30
2023-04-30T23:28:41.297Z,26.30
2023-04-30T23:31:11.228Z,26.30
2023-04-30T23:33:41.432Z,26.30
2023-04-30T23:36:11.422Z,26.20
2023-04-30T23:38:41.490Z,26.30
2023-04-30T23:41:11.540Z,26.20
2023-04-30T23:43:41.880Z,26.30
2023-04-30T23:46:11.703Z,26.40
2023-04-30T23:48:42.370Z,26.50
2023-04-30T23:51:12.335Z,26.40
2023-04-30T23:53:42.283Z,26.40
2023-04-30T23:56:12.012Z,26.50
2023-04-30T23:58:42.073Z,26.50
